createdAt,value
2019-03-28T00:02:27.511Z,14.80
2019-03-28T00:04:59.042Z,16.47
2019-03-28T00:07:30.470Z,14.73
2019-03-28T00:10:05.386Z,14.60
2019-03-28T00:12:36.718Z,13.23
2019-03-28T00:15:08.272Z,14.57
2019-03-28T00:17:39.958Z,14.90
2019-03-28T00:20:11.388Z,16.43
2019-03-28T00:22:47.386Z,14.80
2019-03-28T00:25:19.892Z,15.77
2019-03-28T00:27:51.313Z,13.73
2019-03-28T00:30:23.093Z,13.03
2019-03-28T00:32:54.415Z,13.17
2019-03-28T00:35:26.271Z,13.03
2019-03-28T00:37:58.048Z,13.20
2019-03-28T00:40:30.230Z,13.23
2019-03-28T00:43:01.786Z,13.73
2019-03-28T00:45:33.118Z,13.17
2019-03-28T00:48:04.451Z,12.77
2019-03-28T00:50:35.775Z,12.70
2019-03-28T00:53:07.103Z,12.37
2019-03-28T00:55:38.433Z,12.20
2019-03-28T00:58:09.771Z,11.53
2019-03-28T01:00:41.097Z,13.53
2019-03-28T01:03:12.423Z,14.03
2019-03-28T01:05:43.756Z,13.93
2019-03-28T01:08:15.084Z,15.30
2019-03-28T01:10:47.194Z,14.60
2019-03-28T01:13:18.929Z,15.10
2019-03-28T01:15:50.258Z,15.20
2019-03-28T01:18:21.589Z,14.20
2019-03-28T01:20:52.927Z,13.83
2019-03-28T01:23:24.258Z,14.47
2019-03-28T01:25:55.586Z,15.13
2019-03-28T01:28:26.912Z,11.43
2019-03-28T01:30:58.248Z,13.50
2019-03-28T01:33:29.673Z,14.20
2019-03-28T01:36:01.007Z,13.23
2019-03-28T01:38:32.333Z,13.53
2019-03-28T01:41:03.668Z,12.53
2019-03-28T01:43:34.991Z,14.07
2019-03-28T01:46:06.322Z,14.53
2019-03-28T01:48:37.652Z,13.93
2019-03-28T01:51:08.988Z,11.93
2019-03-28T01:53:40.612Z,14.07
2019-03-28T01:56:11.945Z,11.97
2019-03-28T01:58:43.271Z,13.10
2019-03-28T02:01:15.093Z,13.57
2019-03-28T02:03:46.419Z,13.27
2019-03-28T02:06:18.148Z,13.90
2019-03-28T02:08:50.441Z,13.10
2019-03-28T02:11:22.841Z,12.77
2019-03-28T02:13:54.178Z,11.50
2019-03-28T02:16:25.508Z,11.77
2019-03-28T02:18:56.849Z,10.30
2019-03-28T02:21:28.179Z,11.47
2019-03-28T02:23:59.915Z,10.60
2019-03-28T02:26:31.651Z,11.93
2019-03-28T02:29:02.977Z,11.50
2019-03-28T02:31:34.391Z,10.90
2019-03-28T02:34:05.718Z,10.53
2019-03-28T02:36:37.056Z,10.10
2019-03-28T02:39:08.380Z,11.07
2019-03-28T02:41:39.717Z,9.97
2019-03-28T02:44:11.907Z,11.60
2019-03-28T02:46:43.566Z,9.73
2019-03-28T02:49:14.898Z,11.30
2019-03-28T02:51:47.294Z,11.80
2019-03-28T02:54:18.622Z,10.93
2019-03-28T02:56:49.950Z,10.83
2019-03-28T02:59:21.277Z,9.73
2019-03-28T03:01:52.602Z,10.80
2019-03-28T03:04:23.935Z,11.43
2019-03-28T03:06:55.266Z,11.40
2019-03-28T03:09:26.607Z,11.40
2019-03-28T03:11:57.965Z,11.10
2019-03-28T03:14:29.283Z,10.07
2019-03-28T03:17:00.642Z,11.10
2019-03-28T03:19:32.047Z,11.40
2019-03-28T03:22:03.392Z,12.07
2019-03-28T03:24:34.717Z,11.50
2019-03-28T03:27:06.076Z,10.63
2019-03-28T03:29:37.395Z,11.77
2019-03-28T03:32:08.761Z,10.87
2019-03-28T03:34:40.072Z,10.03
2019-03-28T03:37:11.721Z,10.67
2019-03-28T03:39:43.055Z,11.10
2019-03-28T03:42:14.399Z,10.80
2019-03-28T03:44:45.738Z,10.93
2019-03-28T03:47:17.067Z,10.40
2019-03-28T03:49:48.398Z,11.43
2019-03-28T03:52:19.750Z,12.10
2019-03-28T03:54:51.175Z,12.20
2019-03-28T03:57:22.512Z,13.17
2019-03-28T03:59:54.166Z,11.80
2019-03-28T04:02:25.603Z,11.27
2019-03-28T04:04:57.100Z,11.80
2019-03-28T04:07:28.567Z,10.93
2019-03-28T04:09:59.959Z,9.57
2019-03-28T04:12:31.430Z,11.20
2019-03-28T04:15:02.842Z,11.27
2019-03-28T04:17:34.226Z,12.67
2019-03-28T04:20:07.767Z,11.60
2019-03-28T04:22:39.152Z,11.03
2019-03-28T04:25:10.554Z,12.03
2019-03-28T04:27:41.936Z,12.10
2019-03-28T04:30:13.602Z,10.63
2019-03-28T04:32:44.975Z,11.80
2019-03-28T04:35:16.369Z,11.87
2019-03-28T04:37:47.760Z,12.63
2019-03-28T04:40:19.162Z,12.67
2019-03-28T04:42:50.535Z,13.20
2019-03-28T04:45:21.934Z,13.20
2019-03-28T04:47:53.318Z,15.23
2019-03-28T04:50:24.715Z,15.07
2019-03-28T04:52:56.224Z,14.27
2019-03-28T04:55:27.638Z,14.80
2019-03-28T04:57:59.019Z,14.17
2019-03-28T05:00:30.413Z,14.63
2019-03-28T05:03:02.030Z,15.77
2019-03-28T05:05:33.413Z,15.60
2019-03-28T05:08:04.801Z,15.17
2019-03-28T05:10:39.939Z,16.33
2019-03-28T05:13:11.587Z,18.03
2019-03-28T05:15:42.983Z,19.03
2019-03-28T05:18:14.359Z,18.27
2019-03-28T05:20:45.769Z,17.37
2019-03-28T05:23:17.142Z,18.73
2019-03-28T05:25:48.747Z,14.43
2019-03-28T05:28:22.914Z,13.77
2019-03-28T05:30:54.298Z,13.07
2019-03-28T05:33:25.681Z,13.67
2019-03-28T05:35:57.100Z,12.93
2019-03-28T05:38:28.526Z,13.70
2019-03-28T05:41:00.165Z,14.27
2019-03-28T05:43:32.869Z,13.73
2019-03-28T05:46:04.274Z,12.93
2019-03-28T05:48:35.653Z,11.77
2019-03-28T05:51:07.062Z,10.83
2019-03-28T05:53:38.409Z,9.40
2019-03-28T05:56:10.702Z,8.93
2019-03-28T05:58:42.822Z,9.83
2019-03-28T06:01:14.288Z,8.57
2019-03-28T06:03:45.618Z,8.57
2019-03-28T06:06:16.987Z,7.97
2019-03-28T06:08:48.633Z,8.30
2019-03-28T06:11:20.188Z,9.73
2019-03-28T06:13:51.800Z,8.30
2019-03-28T06:16:23.154Z,8.20
2019-03-28T06:18:54.465Z,7.70
2019-03-28T06:21:25.825Z,6.10
2019-03-28T06:23:57.245Z,7.20
2019-03-28T06:26:28.585Z,7.97
2019-03-28T06:28:59.972Z,6.50
2019-03-28T06:31:31.303Z,6.10
2019-03-28T06:34:03.144Z,7.33
2019-03-28T06:36:34.555Z,6.77
2019-03-28T06:39:06.761Z,7.00
2019-03-28T06:41:38.086Z,7.53
2019-03-28T06:44:09.416Z,6.50
2019-03-28T06:46:40.733Z,6.50
2019-03-28T06:49:12.058Z,6.90
2019-03-28T06:51:43.887Z,7.57
2019-03-28T06:54:15.216Z,8.37
2019-03-28T06:56:47.948Z,7.77
2019-03-28T06:59:20.012Z,7.93
2019-03-28T07:01:52.044Z,7.53
2019-03-28T07:04:23.559Z,7.20
2019-03-28T07:06:54.888Z,7.63
2019-03-28T07:09:26.814Z,7.63
2019-03-28T07:11:58.223Z,8.47
2019-03-28T07:14:30.066Z,9.03
2019-03-28T07:17:02.495Z,8.50
2019-03-28T07:19:34.126Z,7.17
2019-03-28T07:22:05.758Z,8.47
2019-03-28T07:24:37.283Z,7.47
2019-03-28T07:27:08.826Z,7.37
2019-03-28T07:29:50.348Z,6.97
2019-03-28T07:32:13.276Z,8.00
2019-03-28T07:34:44.620Z,7.53
2019-03-28T07:37:15.955Z,8.83
2019-03-28T07:39:47.287Z,9.20
2019-03-28T07:42:18.644Z,9.17
2019-03-28T07:44:50.188Z,9.03
2019-03-28T07:47:21.535Z,9.87
2019-03-28T07:49:52.870Z,10.07
2019-03-28T07:52:24.206Z,9.10
2019-03-28T07:54:55.652Z,7.90
2019-03-28T07:57:26.987Z,8.77
2019-03-28T08:00:04.434Z,10.30
2019-03-28T08:02:31.919Z,8.77
2019-03-28T08:05:03.353Z,8.10
2019-03-28T08:07:44.208Z,9.67
2019-03-28T08:10:08.813Z,8.30
2019-03-28T08:12:40.143Z,8.73
2019-03-28T08:15:11.483Z,8.20
2019-03-28T08:17:42.821Z,8.67
2019-03-28T08:20:14.149Z,8.47
2019-03-28T08:22:45.489Z,8.60
2019-03-28T08:25:16.839Z,8.23
2019-03-28T08:27:48.180Z,8.57
2019-03-28T08:30:38.574Z,9.47
2019-03-28T08:33:10.276Z,7.63
2019-03-28T08:35:41.611Z,7.73
2019-03-28T08:38:12.948Z,8.10
2019-03-28T08:40:45.711Z,7.63
2019-03-28T08:43:17.039Z,9.57
2019-03-28T08:45:48.374Z,10.57
2019-03-28T08:48:19.825Z,7.03
2019-03-28T08:50:51.172Z,9.10
2019-03-28T08:53:22.530Z,8.10
2019-03-28T08:55:53.896Z,8.13
2019-03-28T08:58:25.325Z,8.33
2019-03-28T09:00:56.657Z,5.80
2019-03-28T09:03:27.999Z,7.63
2019-03-28T09:05:59.352Z,6.80
2019-03-28T09:08:31.105Z,7.57
2019-03-28T09:11:02.439Z,7.20
2019-03-28T09:13:33.770Z,6.83
2019-03-28T09:16:05.120Z,10.10
2019-03-28T09:18:36.493Z,7.97
2019-03-28T09:21:07.820Z,7.47
2019-03-28T09:23:39.165Z,7.97
2019-03-28T09:26:10.520Z,7.63
2019-03-28T09:28:41.864Z,6.77
2019-03-28T09:31:19.930Z,4.50
2019-03-28T09:33:47.390Z,6.23
2019-03-28T09:36:18.710Z,5.57
2019-03-28T09:38:50.080Z,6.20
2019-03-28T09:41:21.408Z,10.20
2019-03-28T09:43:55.766Z,9.07
2019-03-28T09:46:26.276Z,7.87
2019-03-28T09:48:57.615Z,7.87
2019-03-28T09:51:28.954Z,5.73
2019-03-28T09:54:00.277Z,4.17
2019-03-28T09:56:31.598Z,3.57
2019-03-28T09:59:03.004Z,4.37
2019-03-28T10:01:34.632Z,4.87
2019-03-28T10:04:06.626Z,5.33
2019-03-28T10:06:39.338Z,4.33
2019-03-28T10:09:10.666Z,4.10
2019-03-28T10:11:41.989Z,3.47
2019-03-28T10:14:13.721Z,5.37
2019-03-28T10:16:45.049Z,2.40
2019-03-28T10:19:16.374Z,2.60
2019-03-28T10:21:48.968Z,3.00
2019-03-28T10:24:20.302Z,11.63
2019-03-28T10:26:53.074Z,3.57
2019-03-28T10:29:24.395Z,2.90
2019-03-28T10:31:55.716Z,3.60
2019-03-28T10:34:27.048Z,4.23
2019-03-28T10:36:58.665Z,3.20
2019-03-28T10:39:31.375Z,1.77
2019-03-28T10:42:02.766Z,2.20
2019-03-28T10:44:34.224Z,2.17
2019-03-28T10:47:06.919Z,2.10
2019-03-28T10:49:38.245Z,2.93
2019-03-28T10:52:11.944Z,3.60
2019-03-28T10:54:42.799Z,2.87
2019-03-28T10:57:28.962Z,3.43
2019-03-28T10:59:48.016Z,2.00
2019-03-28T11:02:19.357Z,32.03
2019-03-28T11:04:50.699Z,4.40
2019-03-28T11:07:22.027Z,3.00
2019-03-28T11:09:53.384Z,2.23
2019-03-28T11:12:24.704Z,2.43
2019-03-28T11:14:56.070Z,14.20
2019-03-28T11:17:27.407Z,2.47
2019-03-28T11:19:58.759Z,2.90
2019-03-28T11:22:30.097Z,2.70
2019-03-28T11:25:01.471Z,4.93
2019-03-28T11:27:34.055Z,3.23
2019-03-28T11:30:10.275Z,3.27
2019-03-28T11:32:41.609Z,4.53
2019-03-28T11:35:14.603Z,4.50
2019-03-28T11:37:46.105Z,2.90
2019-03-28T11:40:17.713Z,2.20
2019-03-28T11:42:51.897Z,8.90
2019-03-28T11:45:23.208Z,3.20
2019-03-28T11:47:54.946Z,2.90
2019-03-28T11:50:26.279Z,6.63
2019-03-28T11:52:57.910Z,4.70
2019-03-28T11:55:29.241Z,6.70
2019-03-28T11:58:00.810Z,38.60
2019-03-28T12:00:32.242Z,12.53
2019-03-28T12:03:03.702Z,4.67
2019-03-28T12:05:35.135Z,6.50
2019-03-28T12:08:06.477Z,6.53
2019-03-28T12:10:38.802Z,4.40
2019-03-28T12:13:10.449Z,6.23
2019-03-28T12:15:43.806Z,6.77
2019-03-28T12:18:15.192Z,3.60
2019-03-28T12:20:46.638Z,6.30
2019-03-28T12:23:17.968Z,4.70
2019-03-28T12:25:49.296Z,3.37
2019-03-28T12:28:20.624Z,3.90
2019-03-28T12:30:53.864Z,16.80
2019-03-28T12:33:25.210Z,36.90
2019-03-28T12:35:56.535Z,24.63
2019-03-28T12:38:28.645Z,18.07
2019-03-28T12:41:00.395Z,5.13
2019-03-28T12:43:31.741Z,4.43
2019-03-28T12:46:03.071Z,3.40
2019-03-28T12:48:34.425Z,4.97
2019-03-28T12:51:05.757Z,2.83
2019-03-28T12:53:37.305Z,2.87
2019-03-28T12:56:08.654Z,3.77
2019-03-28T12:58:40.174Z,3.23
2019-03-28T13:01:11.772Z,3.00
2019-03-28T13:03:45.745Z,2.73
2019-03-28T13:06:16.429Z,3.17
2019-03-28T13:08:47.868Z,15.83
2019-03-28T13:11:19.692Z,6.70
2019-03-28T13:13:51.334Z,28.33
2019-03-28T13:16:22.682Z,21.23
2019-03-28T13:18:54.022Z,32.47
2019-03-28T13:21:25.453Z,7.80
2019-03-28T13:23:57.194Z,8.17
2019-03-28T13:26:28.639Z,5.10
2019-03-28T13:29:00.107Z,3.50
2019-03-28T13:31:31.679Z,4.40
2019-03-28T13:34:07.782Z,5.73
2019-03-28T13:36:45.457Z,6.30
2019-03-28T13:39:18.606Z,4.87
2019-03-28T13:41:49.896Z,4.53
2019-03-28T13:44:24.810Z,3.10
2019-03-28T13:47:03.720Z,4.00
2019-03-28T13:49:32.622Z,3.53
2019-03-28T13:52:07.751Z,4.30
2019-03-28T13:54:40.795Z,4.43
2019-03-28T13:57:16.891Z,12.33
2019-03-28T13:59:57.461Z,24.93
2019-03-28T14:02:33.492Z,4.73
2019-03-28T14:05:07.234Z,4.07
2019-03-28T14:07:41.746Z,3.40
2019-03-28T14:10:14.965Z,4.27
2019-03-28T14:12:46.407Z,4.77
2019-03-28T14:15:17.752Z,3.77
2019-03-28T14:17:52.415Z,78.33
2019-03-28T14:20:23.794Z,337.07
2019-03-28T14:22:55.249Z,38.87
2019-03-28T14:25:26.613Z,13.70
2019-03-28T14:27:59.191Z,11.70
2019-03-28T14:30:30.525Z,31.23
2019-03-28T14:33:11.137Z,7.77
2019-03-28T14:35:35.292Z,7.30
2019-03-28T14:38:07.010Z,14.60
2019-03-28T14:40:38.839Z,84.33
2019-03-28T14:43:10.839Z,22.37
2019-03-28T14:45:43.805Z,78.97
2019-03-28T14:48:15.158Z,10.67
2019-03-28T14:50:46.543Z,11.40
2019-03-28T14:53:22.200Z,39.87
2019-03-28T14:55:54.212Z,18.87
2019-03-28T14:58:25.547Z,15.13
2019-03-28T15:00:58.034Z,12.03
2019-03-28T15:03:30.414Z,6.63
2019-03-28T15:06:01.960Z,20.37
2019-03-28T15:08:33.739Z,9.67
2019-03-28T15:11:05.074Z,9.00
2019-03-28T15:13:36.733Z,10.87
2019-03-28T15:16:08.373Z,8.80
2019-03-28T15:18:39.862Z,8.07
2019-03-28T15:21:11.200Z,7.90
2019-03-28T15:23:44.242Z,7.37
2019-03-28T15:26:15.719Z,46.23
2019-03-28T15:28:47.200Z,52.53
2019-03-28T15:31:20.102Z,66.53
2019-03-28T15:33:51.617Z,40.83
2019-03-28T15:36:23.341Z,55.83
2019-03-28T15:38:56.358Z,19.33
2019-03-28T15:41:27.722Z,26.17
2019-03-28T15:44:00.391Z,6.47
2019-03-28T15:46:31.735Z,16.80
2019-03-28T15:49:03.126Z,63.83
2019-03-28T15:51:34.483Z,166.27
2019-03-28T15:54:05.949Z,45.97
2019-03-28T15:56:39.255Z,52.90
2019-03-28T15:59:11.919Z,106.67
2019-03-28T16:01:43.477Z,69.17
2019-03-28T16:04:14.840Z,54.73
2019-03-28T16:06:46.215Z,82.10
2019-03-28T16:09:18.839Z,69.87
2019-03-28T16:12:02.384Z,137.93
2019-03-28T16:14:29.653Z,51.67
2019-03-28T16:17:01.320Z,8.67
2019-03-28T16:19:36.562Z,10.27
2019-03-28T16:22:12.029Z,14.13
2019-03-28T16:24:46.608Z,13.53
2019-03-28T16:27:18.302Z,14.07
2019-03-28T16:29:49.708Z,6.30
2019-03-28T16:32:40.103Z,13.83
2019-03-28T16:35:13.111Z,26.73
2019-03-28T16:37:44.577Z,24.33
2019-03-28T16:40:15.947Z,12.57
2019-03-28T16:42:47.496Z,13.27
2019-03-28T16:45:18.941Z,104.53
2019-03-28T16:47:51.122Z,142.57
2019-03-28T16:50:22.530Z,63.23
2019-03-28T16:52:53.906Z,140.07
2019-03-28T16:55:26.517Z,133.07
2019-03-28T16:57:58.562Z,102.43
2019-03-28T17:00:37.879Z,106.33
2019-03-28T17:03:10.457Z,88.53
2019-03-28T17:05:42.004Z,63.50
2019-03-28T17:08:13.393Z,42.43
2019-03-28T17:10:49.871Z,79.10
2019-03-28T17:13:22.994Z,56.87
2019-03-28T17:15:54.684Z,112.57
2019-03-28T17:18:26.055Z,65.13
2019-03-28T17:20:57.502Z,40.47
2019-03-28T17:23:29.531Z,46.93
2019-03-28T17:26:01.528Z,44.27
2019-03-28T17:28:41.239Z,47.50
2019-03-28T17:31:14.501Z,37.23
2019-03-28T17:33:50.208Z,37.07
2019-03-28T17:36:21.604Z,27.07
2019-03-28T17:38:54.137Z,26.63
2019-03-28T17:41:25.505Z,22.80
2019-03-28T17:44:02.609Z,20.83
2019-03-28T17:46:33.956Z,26.17
2019-03-28T17:49:05.397Z,56.67
2019-03-28T17:51:40.601Z,27.77
2019-03-28T17:54:12.396Z,19.40
2019-03-28T17:56:44.320Z,22.63
2019-03-28T17:59:15.941Z,41.77
2019-03-28T18:01:47.868Z,37.93
2019-03-28T18:04:22.975Z,29.43
2019-03-28T18:06:52.567Z,35.77
2019-03-28T18:09:24.213Z,36.90
2019-03-28T18:11:55.790Z,31.83
2019-03-28T18:14:27.223Z,32.70
2019-03-28T18:16:59.591Z,27.57
2019-03-28T18:19:31.741Z,20.43
2019-03-28T18:22:04.465Z,52.23
2019-03-28T18:24:35.848Z,29.33
2019-03-28T18:27:07.346Z,18.43
2019-03-28T18:29:38.844Z,17.83
2019-03-28T18:32:10.649Z,26.50
2019-03-28T18:34:43.158Z,17.37
2019-03-28T18:37:14.641Z,10.33
2019-03-28T18:39:46.081Z,12.43
2019-03-28T18:42:17.780Z,15.87
2019-03-28T18:44:49.400Z,15.00
2019-03-28T18:47:22.120Z,18.47
2019-03-28T18:49:53.676Z,21.57
2019-03-28T18:52:29.045Z,39.13
2019-03-28T18:55:01.384Z,45.03
2019-03-28T18:57:33.693Z,43.77
2019-03-28T19:00:07.491Z,35.23
2019-03-28T19:02:39.102Z,40.53
2019-03-28T19:05:19.834Z,42.53
2019-03-28T19:07:45.200Z,44.50
2019-03-28T19:10:16.662Z,44.77
2019-03-28T19:12:48.174Z,40.17
2019-03-28T19:15:21.020Z,39.47
2019-03-28T19:17:52.685Z,33.47
2019-03-28T19:20:24.086Z,49.40
2019-03-28T19:22:55.595Z,64.57
2019-03-28T19:25:26.977Z,71.40
2019-03-28T19:27:58.514Z,52.97
2019-03-28T19:30:33.641Z,65.50
2019-03-28T19:33:08.698Z,98.30
2019-03-28T19:35:42.814Z,122.57
2019-03-28T19:38:13.967Z,142.83
2019-03-28T19:40:45.417Z,136.83
2019-03-28T19:43:22.639Z,116.77
2019-03-28T19:45:53.368Z,105.10
2019-03-28T19:48:25.075Z,101.50
2019-03-28T19:50:56.582Z,105.03
2019-03-28T19:53:28.770Z,115.03
2019-03-28T19:56:00.278Z,144.03
2019-03-28T19:58:34.887Z,187.47
2019-03-28T20:01:06.077Z,191.87
2019-03-28T20:03:37.463Z,178.40
2019-03-28T20:06:21.623Z,153.23
2019-03-28T20:08:45.012Z,121.90
2019-03-28T20:11:17.233Z,109.47
2019-03-28T20:13:49.948Z,114.60
2019-03-28T20:16:21.597Z,118.37
2019-03-28T20:18:54.739Z,112.23
2019-03-28T20:21:28.030Z,105.47
2019-03-28T20:24:01.046Z,126.20
2019-03-28T20:26:32.434Z,185.10
2019-03-28T20:29:05.152Z,157.53
2019-03-28T20:31:36.662Z,131.33
2019-03-28T20:34:08.615Z,123.40
2019-03-28T20:36:45.206Z,131.10
2019-03-28T20:39:16.581Z,144.60
2019-03-28T20:41:48.349Z,143.47
2019-03-28T20:44:19.692Z,140.43
2019-03-28T20:46:51.039Z,136.13
2019-03-28T20:49:22.406Z,142.00
2019-03-28T20:51:56.911Z,149.23
2019-03-28T20:54:31.737Z,176.50
2019-03-28T20:57:06.797Z,166.00
2019-03-28T20:59:41.927Z,163.20
2019-03-28T21:02:14.532Z,156.60
2019-03-28T21:04:46.376Z,169.60
2019-03-28T21:07:20.371Z,160.87
2019-03-28T21:09:54.997Z,145.87
2019-03-28T21:12:27.838Z,150.63
2019-03-28T21:14:59.191Z,152.63
2019-03-28T21:17:35.610Z,153.43
2019-03-28T21:20:12.753Z,149.30
2019-03-28T21:22:49.109Z,142.73
2019-03-28T21:25:23.830Z,134.80
2019-03-28T21:28:00.170Z,139.60
2019-03-28T21:30:46.507Z,130.27
2019-03-28T21:33:15.030Z,123.40
2019-03-28T21:35:52.336Z,124.53
2019-03-28T21:38:27.190Z,103.80
2019-03-28T21:41:06.624Z,93.57
2019-03-28T21:43:38.739Z,92.67
2019-03-28T21:46:16.817Z,86.40
2019-03-28T21:48:56.995Z,64.00
2019-03-28T21:51:31.479Z,39.77
2019-03-28T21:54:06.175Z,36.17
2019-03-28T21:56:41.303Z,33.33
2019-03-28T21:59:13.089Z,31.60
2019-03-28T22:01:45.501Z,27.73
2019-03-28T22:04:16.838Z,28.80
2019-03-28T22:06:49.385Z,36.03
2019-03-28T22:09:24.240Z,41.20
2019-03-28T22:12:00.628Z,36.77
2019-03-28T22:14:31.483Z,46.53
2019-03-28T22:17:02.961Z,39.97
2019-03-28T22:19:34.708Z,38.20
2019-03-28T22:22:06.140Z,37.17
2019-03-28T22:24:39.148Z,29.50
2019-03-28T22:27:11.965Z,25.93
2019-03-28T22:29:43.309Z,26.17
2019-03-28T22:32:14.646Z,28.60
2019-03-28T22:34:46.199Z,26.13
2019-03-28T22:37:17.539Z,24.83
2019-03-28T22:39:48.872Z,22.53
2019-03-28T22:42:20.214Z,30.80
2019-03-28T22:44:53.738Z,28.77
2019-03-28T22:47:25.065Z,27.33
2019-03-28T22:49:56.399Z,22.43
2019-03-28T22:52:27.952Z,20.53
2019-03-28T22:54:59.289Z,18.67
2019-03-28T22:57:35.084Z,17.43
2019-03-28T23:00:12.137Z,16.60
2019-03-28T23:02:45.100Z,14.37
2019-03-28T23:05:24.184Z,15.10
2019-03-28T23:07:51.872Z,14.13
2019-03-28T23:10:23.218Z,14.40
2019-03-28T23:12:56.171Z,14.03
2019-03-28T23:15:27.505Z,12.17
2019-03-28T23:17:58.940Z,12.17
2019-03-28T23:20:33.527Z,12.53
2019-03-28T23:23:03.415Z,12.40
2019-03-28T23:25:35.269Z,12.43
2019-03-28T23:28:08.159Z,13.03
2019-03-28T23:30:39.875Z,13.20
2019-03-28T23:33:14.211Z,12.93
2019-03-28T23:35:45.543Z,12.53
2019-03-28T23:38:16.973Z,12.73
2019-03-28T23:40:48.407Z,14.10
2019-03-28T23:43:21.003Z,13.67
2019-03-28T23:45:52.534Z,13.13
2019-03-28T23:48:24.065Z,13.33
2019-03-28T23:50:55.504Z,12.70
2019-03-28T23:53:26.825Z,12.50
2019-03-28T23:55:58.174Z,12.73
2019-03-28T23:58:29.506Z,20.30
